createdAt,value
2022-09-11T05:33:28.588Z,14.20
2022-09-11T05:38:35.528Z,14.20
2022-09-11T05:43:38.799Z,14.20
2022-09-11T05:48:55.109Z,14.10
2022-09-11T05:53:58.184Z,14.10
2022-09-11T05:58:59.958Z,14.10
2022-09-11T06:04:02.717Z,14.10
2022-09-11T06:09:05.865Z,14.00
2022-09-11T06:14:07.707Z,14.10
2022-09-11T06:19:09.491Z,14.10
2022-09-11T06:24:11.294Z,14.10
2022-09-11T06:29:15.006Z,14.10
2022-09-11T06:34:19.783Z,14.20
2022-09-11T06:39:23.151Z,14.20
2022-09-11T06:44:30.090Z,14.30
2022-09-11T06:49:32.279Z,14.40
2022-09-11T06:54:34.132Z,14.40
2022-09-11T06:59:35.990Z,14.50
2022-09-11T07:04:37.977Z,14.50
2022-09-11T07:09:39.786Z,14.60
2022-09-11T07:14:41.618Z,14.60
2022-09-11T07:19:43.425Z,14.70
2022-09-11T07:24:47.377Z,14.70
2022-09-11T07:29:49.603Z,14.90
2022-09-11T07:34:51.423Z,14.90
2022-09-11T07:39:53.354Z,15.00
2022-09-11T07:44:56.221Z,15.20
2022-09-11T07:49:58.061Z,15.30
2022-09-11T07:55:01.787Z,15.40
2022-09-11T08:00:04.745Z,15.50
2022-09-11T08:05:06.696Z,15.60
2022-09-11T08:10:26.533Z,15.70
2022-09-11T08:15:28.961Z,15.90
2022-09-11T08:20:31.316Z,15.90
2022-09-11T08:25:38.338Z,16.00
2022-09-11T08:30:40.148Z,16.00
2022-09-11T08:35:42.032Z,16.10
2022-09-11T08:40:43.831Z,16.20
2022-09-11T08:45:45.670Z,16.30
2022-09-11T08:50:49.555Z,16.40
2022-09-11T08:55:58.103Z,16.50
2022-09-11T09:01:24.193Z,16.60
2022-09-11T09:06:33.569Z,16.70
2022-09-11T09:12:02.868Z,17.00
2022-09-11T09:17:09.303Z,17.20
2022-09-11T09:22:29.702Z,17.40
2022-09-11T09:27:39.346Z,17.60
2022-09-11T09:32:50.913Z,17.60
2022-09-11T09:37:54.862Z,17.60
2022-09-11T09:43:21.203Z,17.60
2022-09-11T09:48:23.188Z,17.70
2022-09-11T09:53:47.925Z,17.70
2022-09-11T09:59:13.076Z,18.00
2022-09-11T10:04:19.480Z,18.20
2022-09-11T10:09:27.134Z,18.20
2022-09-11T10:15:04.856Z,18.30
2022-09-11T10:20:19.394Z,18.50
2022-09-11T10:25:27.706Z,18.70
2022-09-11T10:30:39.211Z,18.90
2022-09-11T10:35:55.327Z,19.10
2022-09-11T10:41:23.619Z,19.30
2022-09-11T10:46:29.781Z,19.60
2022-09-11T10:51:34.343Z,19.90
2022-09-11T10:56:43.191Z,20.30
2022-09-11T11:01:45.227Z,20.60
2022-09-11T11:07:06.543Z,20.60
2022-09-11T11:12:21.569Z,20.60
2022-09-11T11:17:45.292Z,20.40
2022-09-11T11:23:04.430Z,20.40
2022-09-11T11:28:28.233Z,20.40
2022-09-11T11:33:53.647Z,20.30
2022-09-11T11:39:17.450Z,20.20
2022-09-11T11:44:31.886Z,20.40
2022-09-11T11:49:45.605Z,21.00
2022-09-11T11:55:13.977Z,21.40
2022-09-11T12:00:16.803Z,21.50
2022-09-11T12:05:27.194Z,21.70
2022-09-11T12:10:38.107Z,21.60
2022-09-11T12:15:40.005Z,21.40
2022-09-11T12:20:43.250Z,21.30
2022-09-11T12:25:50.131Z,21.20
2022-09-11T12:31:13.499Z,21.00
2022-09-11T12:36:33.860Z,20.80
2022-09-11T12:41:36.194Z,20.70
2022-09-11T12:46:47.565Z,20.60
2022-09-11T12:51:55.233Z,20.50
2022-09-11T12:57:03.141Z,20.70
2022-09-11T13:02:26.595Z,21.10
2022-09-11T13:07:43.201Z,21.50
2022-09-11T13:12:51.711Z,22.10
2022-09-11T13:17:53.879Z,22.50
2022-09-11T13:23:12.992Z,22.90
2022-09-11T13:28:21.340Z,23.30
2022-09-11T13:33:29.142Z,23.70
2022-09-11T13:38:34.316Z,23.90
2022-09-11T13:43:39.822Z,24.00
2022-09-11T13:48:47.008Z,24.00
2022-09-11T13:53:57.151Z,23.90
2022-09-11T13:59:02.618Z,23.50
2022-09-11T14:04:06.163Z,23.20
2022-09-11T14:09:18.365Z,22.90
2022-09-11T14:14:22.121Z,22.50
2022-09-11T14:19:34.518Z,22.30
2022-09-11T14:24:37.314Z,22.20
2022-09-11T14:29:39.130Z,22.10
2022-09-11T14:34:40.961Z,21.90
2022-09-11T14:39:48.120Z,21.90
2022-09-11T14:44:50.866Z,21.80
2022-09-11T14:49:54.529Z,21.80
2022-09-11T14:55:00.064Z,21.60
2022-09-11T15:00:02.224Z,21.40
2022-09-11T15:05:07.112Z,21.40
2022-09-11T15:10:10.542Z,21.50
2022-09-11T15:15:12.380Z,21.70
2022-09-11T15:20:14.204Z,21.90
2022-09-11T15:25:16.091Z,22.20
2022-09-11T15:30:19.590Z,22.50
2022-09-11T15:35:23.265Z,22.60
2022-09-11T15:40:25.043Z,22.70
2022-09-11T15:45:26.869Z,22.80
2022-09-11T15:50:30.205Z,22.80
2022-09-11T15:55:32.074Z,22.80
2022-09-11T16:00:34.997Z,23.10
2022-09-11T16:05:42.225Z,23.10
2022-09-11T16:10:44.063Z,23.30
2022-09-11T16:15:46.878Z,23.20
2022-09-11T16:20:58.667Z,23.20
2022-09-11T16:26:06.149Z,23.20
2022-09-11T16:31:08.250Z,23.00
2022-09-11T16:36:22.524Z,22.80
2022-09-11T16:41:25.181Z,22.80
2022-09-11T16:46:27.468Z,22.60
2022-09-11T16:51:29.780Z,22.50
2022-09-11T16:56:31.632Z,22.40
2022-09-11T17:01:33.697Z,22.30
2022-09-11T17:06:35.669Z,22.20
2022-09-11T17:11:37.956Z,22.10
2022-09-11T17:16:39.915Z,22.10
2022-09-11T17:21:41.872Z,22.00
2022-09-11T17:26:43.800Z,21.90
2022-09-11T17:31:46.325Z,21.90
2022-09-11T17:36:49.137Z,21.80
2022-09-11T17:41:50.964Z,21.80
2022-09-11T17:46:52.867Z,21.60
2022-09-11T17:51:54.694Z,21.60
2022-09-11T17:56:57.604Z,21.50
2022-09-11T18:02:01.200Z,21.40
2022-09-11T18:07:03.616Z,21.40
2022-09-11T18:12:05.799Z,21.30
2022-09-11T18:17:07.663Z,21.20
2022-09-11T18:22:10.050Z,21.10
2022-09-11T18:27:12.360Z,21.00
2022-09-11T18:32:14.217Z,20.90
2022-09-11T18:37:17.482Z,20.80
2022-09-11T18:42:19.331Z,20.70
2022-09-11T18:47:22.156Z,20.60
2022-09-11T18:52:26.261Z,20.50
2022-09-11T18:57:28.684Z,20.50
2022-09-11T19:02:30.537Z,20.40
2022-09-11T19:07:32.390Z,20.30
